Newport, ME (04953)

1:38 AM EDT on March 30, 2017 (GMT -0400)
Downtown Newport | | Change Station

Elev 227 ft 44.84 °N, 69.28 °W | Updated 4 seconds ago

Mostly Cloudy
Mostly Cloudy
33.3 °F
Feels Like 27 °F
N
7.0
Wind Variable Wind from NW
Gusts 12.0 mph

Today
High -- | Low -- °F
--% Chance of Precip.
Yesterday
High -- | Low -- °F
Precip. -- in
Pressure 30.08 in
Visibility 10.0 miles
Clouds Mostly Cloudy 3300 ft
Overcast 4500 ft
Windchill 27 °F
Dew Point 33 °F
Humidity 100%
Rainfall 0.00 in
Snow Depth Not available.
6:21 AM 7:02 PM
Waxing Crescent, 6% visible
METAR KBGR 300453Z 34015KT 10SM BKN033 OVC045 02/M03 A3007 RMK AO2 SLP184 T00171028 400440006
Pressure 30.08 in
Visibility 10.0 miles
Clouds Mostly Cloudy 3300 ft
Overcast 4500 ft
Windchill 27 °F
Dew Point 33 °F
Humidity 100%
Rainfall 0.00 in
Snow Depth Not available.
6:21 AM 7:02 PM
Waxing Crescent, 6% visible
METAR KBGR 300453Z 34015KT 10SM BKN033 OVC045 02/M03 A3007 RMK AO2 SLP184 T00171028 400440006

Get Severe Weather Alerts

Thanks for signing up!

Be on the lookout for a verification email in your inbox.

You'll start receiving the daily forecast at 8 AM.

×

10-Day Weather Forecast

Almanac

Astronomy

Mar. 30, 2017 Rise Set
Actual Time
Civil Twilight
Nautical Twilight
Astronomical Twilight
Moon
Length of Visible Light
Length of Day
Tomorrow will be .
, % of the Moon is Illuminated

Today's Extremes

State Highs State Lows

Community

WunderPhotos

Upload Photos

1,962,540 photos uploaded!

WunderBlog® & News

Nearby

Air Quality

  Air Quality AQ Index Pollutant
Not available.

Snow Depth

Station Depth Elevation

Earthquake Activity

City Distance Mag. Time & Date
Minimum magnitude displayed is 2.5.

Earthquake Activity

City Distance Mag. Time & Date
Minimum magnitude displayed is 2.5.

Coastal Water Temperatures

Place Temperature

Stations

Nearby Weather Stations

Station Location Temp. Windchill Dew Point Humidity Wind Precip. Elev Updated Type
                   

Watches & Warnings

There are currently no watches in effect.